createdAt,value
2022-08-31T00:02:43.845Z,1.35
2022-08-31T00:05:11.014Z,1.88
2022-08-31T00:07:38.026Z,2.33
2022-08-31T00:10:14.704Z,2.00
2022-08-31T00:12:43.247Z,1.73
2022-08-31T00:15:12.981Z,1.80
2022-08-31T00:17:40.420Z,1.85
2022-08-31T00:20:09.511Z,1.90
2022-08-31T00:22:57.005Z,1.75
2022-08-31T00:25:24.481Z,1.90
2022-08-31T00:27:51.105Z,1.80
2022-08-31T00:30:17.823Z,1.50
2022-08-31T00:32:44.457Z,1.70
2022-08-31T00:35:11.299Z,1.60
2022-08-31T00:37:37.995Z,1.95
2022-08-31T00:40:05.551Z,1.70
2022-08-31T00:42:34.115Z,1.63
2022-08-31T00:45:00.824Z,1.40
2022-08-31T00:47:27.431Z,1.70
2022-08-31T00:49:54.181Z,1.85
2022-08-31T00:52:33.385Z,1.77
2022-08-31T00:55:16.890Z,1.55
2022-08-31T00:57:46.216Z,1.98
2022-08-31T01:00:17.716Z,1.50
2022-08-31T01:02:44.699Z,1.75
2022-08-31T01:05:12.285Z,2.00
2022-08-31T01:07:39.772Z,2.13
2022-08-31T01:10:07.237Z,1.58
2022-08-31T01:12:33.937Z,1.77
2022-08-31T01:15:03.718Z,1.98
2022-08-31T01:17:33.439Z,2.08
2022-08-31T01:20:08.336Z,1.90
2022-08-31T01:23:02.332Z,1.98
2022-08-31T01:25:33.596Z,2.60
2022-08-31T01:28:02.559Z,2.22
2022-08-31T01:30:29.183Z,2.03
2022-08-31T01:32:55.853Z,2.10
2022-08-31T01:35:22.544Z,2.08
2022-08-31T01:37:49.505Z,1.92
2022-08-31T01:40:17.220Z,1.88
2022-08-31T01:42:43.936Z,2.08
2022-08-31T01:45:11.571Z,1.92
2022-08-31T01:47:39.667Z,2.10
2022-08-31T01:50:07.409Z,2.08
2022-08-31T01:52:36.603Z,1.90
2022-08-31T01:55:06.082Z,2.17
2022-08-31T01:57:33.302Z,1.60
2022-08-31T02:00:04.654Z,1.90
2022-08-31T02:02:31.923Z,2.22
2022-08-31T02:04:59.118Z,2.00
2022-08-31T02:07:25.922Z,1.88
2022-08-31T02:09:54.143Z,1.98
2022-08-31T02:12:20.819Z,1.90
2022-08-31T02:14:47.463Z,2.33
2022-08-31T02:17:14.136Z,2.58
2022-08-31T02:19:40.774Z,2.22
2022-08-31T02:22:07.703Z,2.28
2022-08-31T02:24:34.410Z,2.00
2022-08-31T02:27:01.056Z,2.25
2022-08-31T02:29:27.682Z,1.92
2022-08-31T02:31:54.366Z,2.22
2022-08-31T02:34:20.995Z,2.08
2022-08-31T02:36:47.656Z,2.00
2022-08-31T02:39:14.912Z,1.98
2022-08-31T02:41:47.563Z,2.15
2022-08-31T02:44:14.515Z,2.10
2022-08-31T02:46:41.405Z,2.17
2022-08-31T02:49:08.138Z,1.80
2022-08-31T02:51:34.803Z,2.10
2022-08-31T02:54:01.452Z,2.28
2022-08-31T02:56:28.180Z,2.10
2022-08-31T02:58:55.180Z,2.25
2022-08-31T03:01:23.621Z,1.98
2022-08-31T03:03:50.489Z,2.05
2022-08-31T03:06:18.479Z,1.98
2022-08-31T03:08:45.708Z,2.40
2022-08-31T03:11:13.258Z,1.95
2022-08-31T03:13:40.278Z,1.90
2022-08-31T03:16:07.658Z,2.10
2022-08-31T03:18:34.687Z,2.10
2022-08-31T03:21:02.494Z,2.20
2022-08-31T03:23:32.523Z,2.10
2022-08-31T03:26:00.207Z,2.10
2022-08-31T03:28:26.850Z,2.30
2022-08-31T03:30:53.902Z,2.20
2022-08-31T03:33:20.791Z,1.93
2022-08-31T03:35:47.527Z,2.17
2022-08-31T03:38:15.982Z,1.87
2022-08-31T03:40:44.187Z,2.20
2022-08-31T03:43:11.959Z,1.83
2022-08-31T03:45:40.827Z,1.90
2022-08-31T03:48:12.194Z,2.10
2022-08-31T03:50:40.445Z,2.30
2022-08-31T03:53:07.921Z,2.50
2022-08-31T03:55:36.976Z,1.77
2022-08-31T03:58:04.711Z,2.10
2022-08-31T04:00:33.714Z,2.10
2022-08-31T04:03:01.462Z,2.47
2022-08-31T04:05:33.710Z,2.30
2022-08-31T04:08:00.547Z,2.27
2022-08-31T04:10:27.189Z,1.97
2022-08-31T04:12:53.963Z,2.13
2022-08-31T04:15:22.397Z,2.67
2022-08-31T04:17:49.119Z,2.20
2022-08-31T04:20:18.991Z,2.03
2022-08-31T04:22:56.090Z,2.28
2022-08-31T04:25:22.712Z,1.90
2022-08-31T04:27:50.313Z,2.00
2022-08-31T04:30:17.893Z,1.70
2022-08-31T04:32:44.591Z,2.07
2022-08-31T04:35:11.334Z,2.10
2022-08-31T04:37:39.812Z,2.20
2022-08-31T04:40:19.009Z,1.90
2022-08-31T04:42:49.464Z,2.10
2022-08-31T04:45:16.955Z,1.57
2022-08-31T04:47:43.954Z,2.17
2022-08-31T04:50:12.481Z,1.87
2022-08-31T04:52:39.287Z,1.87
2022-08-31T04:55:07.383Z,1.90
2022-08-31T04:57:35.676Z,2.63
2022-08-31T05:00:04.475Z,2.00
2022-08-31T05:02:33.290Z,1.77
2022-08-31T05:05:00.858Z,2.03
2022-08-31T05:07:27.846Z,1.90
2022-08-31T05:09:54.474Z,1.70
2022-08-31T05:12:21.191Z,2.20
2022-08-31T05:14:47.891Z,2.17
2022-08-31T05:17:16.023Z,1.87
2022-08-31T05:19:43.302Z,1.98
2022-08-31T05:22:10.319Z,1.92
2022-08-31T05:24:38.893Z,1.70
2022-08-31T05:27:05.936Z,2.10
2022-08-31T05:29:32.585Z,1.90
2022-08-31T05:31:59.238Z,2.00
2022-08-31T05:34:26.776Z,2.17
2022-08-31T05:36:55.424Z,2.00
2022-08-31T05:39:22.773Z,2.08
2022-08-31T05:41:49.793Z,1.80
2022-08-31T05:44:17.525Z,2.27
2022-08-31T05:46:44.438Z,2.30
2022-08-31T05:49:11.674Z,2.73
2022-08-31T05:51:39.271Z,2.40
2022-08-31T05:54:10.693Z,1.97
2022-08-31T05:56:40.437Z,2.17
2022-08-31T05:59:07.547Z,2.15
2022-08-31T06:01:38.206Z,2.00
2022-08-31T06:04:06.011Z,2.10
2022-08-31T06:06:33.181Z,2.10
2022-08-31T06:09:00.807Z,1.90
2022-08-31T06:11:29.592Z,2.28
2022-08-31T06:13:58.237Z,2.25
2022-08-31T06:16:26.327Z,2.13
2022-08-31T06:18:55.615Z,1.70
2022-08-31T06:21:24.077Z,1.88
2022-08-31T06:23:52.328Z,1.83
2022-08-31T06:26:21.203Z,1.80
2022-08-31T06:28:53.195Z,1.60
2022-08-31T06:31:26.771Z,1.45
2022-08-31T06:33:55.080Z,1.10
2022-08-31T06:36:24.693Z,1.00
2022-08-31T06:39:01.503Z,1.50
2022-08-31T06:41:36.243Z,0.90
2022-08-31T06:44:08.621Z,0.90
2022-08-31T06:46:36.989Z,1.08
2022-08-31T06:49:04.308Z,1.10
2022-08-31T06:51:36.492Z,1.20
2022-08-31T06:54:28.086Z,1.20
2022-08-31T06:56:54.422Z,1.10
2022-08-31T06:59:23.395Z,1.30
2022-08-31T07:01:53.257Z,1.02
2022-08-31T07:04:20.003Z,1.10
2022-08-31T07:06:46.644Z,1.30
2022-08-31T07:09:17.714Z,1.20
2022-08-31T07:11:46.923Z,1.25
2022-08-31T07:14:19.448Z,1.20
2022-08-31T07:16:46.581Z,1.00
2022-08-31T07:19:14.687Z,1.25
2022-08-31T07:21:44.508Z,1.10
2022-08-31T07:24:12.905Z,0.95
2022-08-31T07:26:43.264Z,0.95
2022-08-31T07:29:11.231Z,0.88
2022-08-31T07:31:46.467Z,1.20
2022-08-31T07:34:20.035Z,0.98
2022-08-31T07:37:06.281Z,0.93
2022-08-31T07:39:52.121Z,0.90
2022-08-31T07:42:29.846Z,1.10
2022-08-31T07:44:58.474Z,0.80
2022-08-31T07:47:29.088Z,0.90
2022-08-31T07:49:58.484Z,0.90
2022-08-31T07:52:28.722Z,1.05
2022-08-31T07:54:59.977Z,0.88
2022-08-31T07:57:30.082Z,0.90
2022-08-31T08:00:01.224Z,0.80
2022-08-31T08:02:29.072Z,0.85
2022-08-31T08:04:55.978Z,0.90
2022-08-31T08:07:22.957Z,0.85
2022-08-31T08:09:49.652Z,0.75
2022-08-31T08:12:16.595Z,0.77
2022-08-31T08:14:43.369Z,0.80
2022-08-31T08:17:10.184Z,0.60
2022-08-31T08:19:36.914Z,0.65
2022-08-31T08:22:03.931Z,0.70
2022-08-31T08:24:31.693Z,0.77
2022-08-31T08:26:59.243Z,0.55
2022-08-31T08:29:28.803Z,0.70
2022-08-31T08:32:01.041Z,0.80
2022-08-31T08:34:32.544Z,0.80
2022-08-31T08:37:00.328Z,0.80
2022-08-31T08:39:27.419Z,0.82
2022-08-31T08:41:56.992Z,0.45
2022-08-31T08:44:28.156Z,0.95
2022-08-31T08:46:57.258Z,0.65
2022-08-31T08:49:43.886Z,0.80
2022-08-31T08:52:15.253Z,0.93
2022-08-31T08:54:45.842Z,0.90
2022-08-31T08:57:23.010Z,0.73
2022-08-31T08:59:57.463Z,1.02
2022-08-31T09:02:31.611Z,0.93
2022-08-31T09:05:11.006Z,0.82
2022-08-31T09:07:51.020Z,0.90
2022-08-31T09:10:31.253Z,1.20
2022-08-31T09:13:09.773Z,1.02
2022-08-31T09:16:10.526Z,1.30
2022-08-31T09:18:45.812Z,1.20
2022-08-31T09:21:32.750Z,1.23
2022-08-31T09:24:11.699Z,1.50
2022-08-31T09:27:19.438Z,1.45
2022-08-31T09:29:58.439Z,1.10
2022-08-31T09:32:31.560Z,1.00
2022-08-31T09:35:09.155Z,1.08
2022-08-31T09:37:46.223Z,1.08
2022-08-31T09:40:23.670Z,0.80
2022-08-31T09:43:25.353Z,0.98
2022-08-31T09:46:04.962Z,1.00
2022-08-31T09:48:56.270Z,1.20
2022-08-31T09:51:28.296Z,0.90
2022-08-31T09:54:18.631Z,0.90
2022-08-31T09:56:56.727Z,1.10
2022-08-31T09:59:44.465Z,1.02
2022-08-31T10:02:26.158Z,0.80
2022-08-31T10:05:01.410Z,1.00
2022-08-31T10:07:43.300Z,1.42
2022-08-31T10:10:30.122Z,0.98
2022-08-31T10:13:06.236Z,1.10
2022-08-31T10:15:39.526Z,0.90
2022-08-31T10:18:30.039Z,1.10
2022-08-31T10:21:06.070Z,0.90
2022-08-31T10:23:54.127Z,1.13
2022-08-31T10:26:31.651Z,1.00
2022-08-31T10:29:01.396Z,1.17
2022-08-31T10:31:36.852Z,1.40
2022-08-31T10:34:31.903Z,1.55
2022-08-31T10:37:09.222Z,1.20
2022-08-31T10:39:58.275Z,1.20
2022-08-31T10:42:29.967Z,1.30
2022-08-31T10:45:04.269Z,1.40
2022-08-31T10:47:34.249Z,1.20
2022-08-31T10:50:03.379Z,1.45
2022-08-31T10:52:34.522Z,1.50
2022-08-31T10:55:16.328Z,1.23
2022-08-31T10:57:54.798Z,1.10
2022-08-31T11:00:42.084Z,1.40
2022-08-31T11:03:22.548Z,1.10
2022-08-31T11:06:17.202Z,1.20
2022-08-31T11:08:57.450Z,1.30
2022-08-31T11:11:43.769Z,1.17
2022-08-31T11:14:48.422Z,1.10
2022-08-31T11:17:29.932Z,0.80
2022-08-31T11:20:24.346Z,1.10
2022-08-31T11:25:56.627Z,1.15
2022-08-31T11:28:48.969Z,0.95
2022-08-31T11:31:25.502Z,0.98
2022-08-31T11:34:15.105Z,1.15
2022-08-31T11:36:52.176Z,1.30
2022-08-31T11:39:46.138Z,1.30
2022-08-31T11:42:18.786Z,1.27
2022-08-31T11:44:48.887Z,1.58
2022-08-31T11:47:27.763Z,1.27
2022-08-31T11:50:05.421Z,1.10
2022-08-31T11:52:43.241Z,1.00
2022-08-31T11:55:48.658Z,1.00
2022-08-31T11:58:22.226Z,1.00
2022-08-31T12:01:10.209Z,1.10
2022-08-31T12:03:44.482Z,1.20
2022-08-31T12:06:36.233Z,0.82
2022-08-31T12:09:36.851Z,0.90
2022-08-31T12:12:19.636Z,1.10
2022-08-31T12:14:55.110Z,1.10
2022-08-31T12:17:37.022Z,0.82
2022-08-31T12:20:16.165Z,1.02
2022-08-31T12:23:18.703Z,0.90
2022-08-31T12:26:21.534Z,1.20
2022-08-31T12:29:19.941Z,0.85
2022-08-31T12:32:11.467Z,1.00
2022-08-31T12:35:18.606Z,0.88
2022-08-31T12:37:45.788Z,0.95
2022-08-31T12:40:19.453Z,1.02
2022-08-31T12:45:20.870Z,0.90
2022-08-31T12:48:06.622Z,1.00
2022-08-31T12:50:41.120Z,0.75
2022-08-31T12:53:47.267Z,0.73
2022-08-31T12:56:26.298Z,0.80
2022-08-31T12:58:52.905Z,1.00
2022-08-31T13:01:22.600Z,1.00
2022-08-31T13:03:54.234Z,1.15
2022-08-31T13:06:25.705Z,1.05
2022-08-31T13:08:55.712Z,0.90
2022-08-31T13:11:42.688Z,0.90
2022-08-31T13:14:20.762Z,0.90
2022-08-31T13:17:05.050Z,0.82
2022-08-31T13:19:33.632Z,0.70
2022-08-31T13:22:09.302Z,1.00
2022-08-31T13:24:42.394Z,0.88
2022-08-31T13:27:21.814Z,0.80
2022-08-31T13:29:49.865Z,0.93
2022-08-31T13:32:19.523Z,0.70
2022-08-31T13:34:48.068Z,0.90
2022-08-31T13:37:23.340Z,1.00
2022-08-31T13:39:50.248Z,0.80
2022-08-31T13:42:32.894Z,1.20
2022-08-31T13:45:09.502Z,0.63
2022-08-31T13:47:45.152Z,1.17
2022-08-31T13:50:27.049Z,0.77
2022-08-31T13:53:23.025Z,1.00
2022-08-31T13:55:44.527Z,0.85
2022-08-31T13:58:29.644Z,0.90
2022-08-31T14:01:23.048Z,0.77
2022-08-31T14:03:59.523Z,0.80
2022-08-31T14:06:30.705Z,0.80
2022-08-31T14:09:07.738Z,1.23
2022-08-31T14:11:35.586Z,0.80
2022-08-31T14:14:09.934Z,1.15
2022-08-31T14:16:40.202Z,0.98
2022-08-31T14:21:43.491Z,0.70
2022-08-31T14:24:12.372Z,0.90
2022-08-31T14:26:41.778Z,0.73
2022-08-31T14:29:12.405Z,0.70
2022-08-31T14:31:52.378Z,1.17
2022-08-31T14:34:30.450Z,0.80
2022-08-31T14:37:19.889Z,0.90
2022-08-31T14:39:51.354Z,0.70
2022-08-31T14:42:29.879Z,0.93
2022-08-31T14:45:18.964Z,0.80
2022-08-31T14:47:48.003Z,0.90
2022-08-31T14:50:18.777Z,0.77
2022-08-31T14:52:52.665Z,0.77
2022-08-31T14:57:58.007Z,0.77
2022-08-31T15:00:25.442Z,0.70
2022-08-31T15:02:56.670Z,0.85
2022-08-31T15:05:24.930Z,0.90
2022-08-31T15:07:53.252Z,0.80
2022-08-31T15:10:22.101Z,0.80
2022-08-31T15:12:48.854Z,0.73
2022-08-31T15:15:20.894Z,1.05
2022-08-31T15:17:51.744Z,1.20
2022-08-31T15:20:20.151Z,1.15
2022-08-31T15:22:48.007Z,0.90
2022-08-31T15:25:15.748Z,0.80
2022-08-31T15:27:44.486Z,0.82
2022-08-31T15:30:19.739Z,1.10
2022-08-31T15:32:48.016Z,0.90
2022-08-31T15:35:18.861Z,1.10
2022-08-31T15:37:52.114Z,0.88
2022-08-31T15:40:18.984Z,0.80
2022-08-31T15:42:46.170Z,0.85
2022-08-31T15:45:13.054Z,0.90
2022-08-31T15:47:59.437Z,1.00
2022-08-31T15:50:31.743Z,1.20
2022-08-31T15:53:05.187Z,1.40
2022-08-31T15:55:36.264Z,1.20
2022-08-31T15:58:04.244Z,1.10
2022-08-31T16:00:32.756Z,0.88
2022-08-31T16:03:02.175Z,1.00
2022-08-31T16:05:35.846Z,1.00
2022-08-31T16:10:30.927Z,1.00
2022-08-31T16:12:57.893Z,1.00
2022-08-31T16:15:32.699Z,1.25
2022-08-31T16:18:02.919Z,1.30
2022-08-31T16:20:29.625Z,0.90
2022-08-31T16:22:58.724Z,0.95
2022-08-31T16:25:34.770Z,0.80
2022-08-31T16:28:15.148Z,0.82
2022-08-31T16:30:43.919Z,1.00
2022-08-31T16:33:12.266Z,0.65
2022-08-31T16:35:39.425Z,0.60
2022-08-31T16:38:07.236Z,0.90
2022-08-31T16:40:35.500Z,0.70
2022-08-31T16:43:05.032Z,0.70
2022-08-31T16:45:31.748Z,0.70
2022-08-31T16:48:19.690Z,0.80
2022-08-31T16:50:47.641Z,0.65
2022-08-31T16:53:18.443Z,0.80
2022-08-31T16:55:47.498Z,0.70
2022-08-31T16:58:24.895Z,0.70
2022-08-31T17:01:12.735Z,0.60
2022-08-31T17:03:52.399Z,0.60
2022-08-31T17:06:19.686Z,1.10
2022-08-31T17:08:47.079Z,0.60
2022-08-31T17:11:17.707Z,0.98
2022-08-31T17:13:47.591Z,0.75
2022-08-31T17:16:21.161Z,0.98
2022-08-31T17:21:25.050Z,0.70
2022-08-31T17:23:52.449Z,0.70
2022-08-31T17:26:19.410Z,0.50
2022-08-31T17:28:58.741Z,0.82
2022-08-31T17:31:26.272Z,0.80
2022-08-31T17:33:55.324Z,0.98
2022-08-31T17:36:23.379Z,1.13
2022-08-31T17:38:50.061Z,0.80
2022-08-31T17:41:16.967Z,0.70
2022-08-31T17:43:43.859Z,0.70
2022-08-31T17:46:12.725Z,0.63
2022-08-31T17:48:41.455Z,0.70
2022-08-31T17:51:09.980Z,0.80
2022-08-31T17:53:37.439Z,0.73
2022-08-31T17:56:06.857Z,0.70
2022-08-31T17:58:34.123Z,0.70
2022-08-31T18:01:03.319Z,0.88
2022-08-31T18:03:30.156Z,0.88
2022-08-31T18:05:56.958Z,1.05
2022-08-31T18:08:24.467Z,1.05
2022-08-31T18:10:52.926Z,0.80
2022-08-31T18:13:21.464Z,0.80
2022-08-31T18:15:51.369Z,0.90
2022-08-31T18:18:18.428Z,0.90
2022-08-31T18:20:45.312Z,0.80
2022-08-31T18:23:12.729Z,0.90
2022-08-31T18:25:43.080Z,0.98
2022-08-31T18:28:09.801Z,0.63
2022-08-31T18:30:41.220Z,0.75
2022-08-31T18:33:09.313Z,0.80
2022-08-31T18:35:51.196Z,1.00
2022-08-31T18:38:18.238Z,0.95
2022-08-31T18:41:03.522Z,0.90
2022-08-31T18:43:48.888Z,0.90
2022-08-31T18:46:15.712Z,0.80
2022-08-31T18:48:54.157Z,0.80
2022-08-31T18:51:23.334Z,0.60
2022-08-31T18:53:51.707Z,1.00
2022-08-31T18:56:18.475Z,0.90
2022-08-31T18:58:45.143Z,0.80
2022-08-31T19:01:14.161Z,1.33
2022-08-31T19:03:41.621Z,0.85
2022-08-31T19:06:15.633Z,0.82
2022-08-31T19:08:42.311Z,1.20
2022-08-31T19:11:09.033Z,0.90
2022-08-31T19:13:35.728Z,0.95
2022-08-31T19:16:14.668Z,1.20
2022-08-31T19:18:41.671Z,1.00
2022-08-31T19:21:20.714Z,0.90
2022-08-31T19:23:47.931Z,1.10
2022-08-31T19:26:24.645Z,0.80
2022-08-31T19:28:51.407Z,1.00
2022-08-31T19:31:19.519Z,0.88
2022-08-31T19:33:56.312Z,0.90
2022-08-31T19:36:24.427Z,0.77
2022-08-31T19:38:51.765Z,0.90
2022-08-31T19:41:23.337Z,1.00
2022-08-31T19:43:56.133Z,0.98
2022-08-31T19:46:32.939Z,0.90
2022-08-31T19:49:00.357Z,1.00
2022-08-31T19:51:29.186Z,0.80
2022-08-31T19:53:56.287Z,0.88
2022-08-31T19:56:25.788Z,0.82
2022-08-31T19:58:53.603Z,1.27
2022-08-31T20:01:25.239Z,0.90
2022-08-31T20:03:54.284Z,1.00
2022-08-31T20:06:22.568Z,1.10
2022-08-31T20:08:50.320Z,1.00
2022-08-31T20:11:22.063Z,0.98
2022-08-31T20:13:49.770Z,1.25
2022-08-31T20:16:17.189Z,1.00
2022-08-31T20:18:50.917Z,0.95
2022-08-31T20:21:23.459Z,0.80
2022-08-31T20:23:53.167Z,0.90
2022-08-31T20:26:26.112Z,0.80
2022-08-31T20:29:04.142Z,1.35
2022-08-31T20:31:32.823Z,1.25
2022-08-31T20:34:00.006Z,0.85
2022-08-31T20:36:32.538Z,1.25
2022-08-31T20:39:07.821Z,0.95
2022-08-31T20:41:40.165Z,1.00
2022-08-31T20:44:12.675Z,1.00
2022-08-31T20:47:02.615Z,1.10
2022-08-31T20:49:32.378Z,1.10
2022-08-31T20:52:01.835Z,1.00
2022-08-31T20:54:32.735Z,1.08
2022-08-31T20:57:02.354Z,1.08
2022-08-31T20:59:29.368Z,1.20
2022-08-31T21:02:00.441Z,0.90
2022-08-31T21:04:29.105Z,0.80
2022-08-31T21:06:57.821Z,1.13
2022-08-31T21:09:25.203Z,1.00
2022-08-31T21:11:52.326Z,1.05
2022-08-31T21:14:20.245Z,1.38
2022-08-31T21:16:47.945Z,1.10
2022-08-31T21:19:18.119Z,1.40
2022-08-31T21:21:46.292Z,1.10
2022-08-31T21:24:16.128Z,1.20
2022-08-31T21:26:43.993Z,1.05
2022-08-31T21:29:14.625Z,1.13
2022-08-31T21:31:48.978Z,1.15
2022-08-31T21:34:22.748Z,1.35
2022-08-31T21:36:49.801Z,0.90
2022-08-31T21:39:19.082Z,1.15
2022-08-31T21:41:48.475Z,1.20
2022-08-31T21:44:17.139Z,1.15
2022-08-31T21:46:49.778Z,1.38
2022-08-31T21:49:17.974Z,1.13
2022-08-31T21:51:50.747Z,1.00
2022-08-31T21:54:21.970Z,1.17
2022-08-31T21:56:52.583Z,1.30
2022-08-31T21:59:22.100Z,1.30
2022-08-31T22:01:51.007Z,1.33
2022-08-31T22:04:20.578Z,1.52
2022-08-31T22:06:49.542Z,1.60
2022-08-31T22:09:19.294Z,1.33
2022-08-31T22:11:50.644Z,1.20
2022-08-31T22:14:20.092Z,1.25
2022-08-31T22:16:48.024Z,1.60
2022-08-31T22:19:20.930Z,1.20
2022-08-31T22:21:51.106Z,1.23
2022-08-31T22:24:27.660Z,1.33
2022-08-31T22:26:55.740Z,1.60
2022-08-31T22:29:24.663Z,1.40
2022-08-31T22:31:54.279Z,1.20
2022-08-31T22:34:21.639Z,1.38
2022-08-31T22:36:50.770Z,1.40
2022-08-31T22:39:21.213Z,1.50
2022-08-31T22:41:52.045Z,1.42
2022-08-31T22:44:23.130Z,1.30
2022-08-31T22:46:49.850Z,1.40
2022-08-31T22:49:19.641Z,1.60
2022-08-31T22:51:49.094Z,1.65
2022-08-31T22:54:17.734Z,1.58
2022-08-31T22:56:45.167Z,1.70
2022-08-31T22:59:14.703Z,1.50
2022-08-31T23:01:50.540Z,1.48
2022-08-31T23:04:21.962Z,1.63
2022-08-31T23:06:51.160Z,1.40
2022-08-31T23:09:21.391Z,1.63
2022-08-31T23:11:53.281Z,2.10
2022-08-31T23:14:23.796Z,1.63
2022-08-31T23:16:59.055Z,1.80
2022-08-31T23:19:33.379Z,2.00
2022-08-31T23:22:01.563Z,1.67
2022-08-31T23:24:43.874Z,1.60
2022-08-31T23:27:11.754Z,1.60
2022-08-31T23:29:47.878Z,1.95
2022-08-31T23:32:22.274Z,1.60
2022-08-31T23:34:50.618Z,1.60
2022-08-31T23:37:18.509Z,1.70
2022-08-31T23:39:46.325Z,1.60
2022-08-31T23:42:14.920Z,2.05
2022-08-31T23:44:46.486Z,1.67
2022-08-31T23:47:20.214Z,1.80
2022-08-31T23:49:51.321Z,2.08
2022-08-31T23:52:26.469Z,1.65
2022-08-31T23:54:57.697Z,1.63
2022-08-31T23:57:32.221Z,1.70
